sensor_id;sensor_type;location;lat;lon;timestamp;P1;durP1;ratioP1;P2;durP2;ratioP2
61015;SDS011;46902;52.920;6.536;2023-09-19T00:01:38;8.02;;;1.45;;
61015;SDS011;46902;52.920;6.536;2023-09-19T00:04:09;10.88;;;2.00;;
61015;SDS011;46902;52.920;6.536;2023-09-19T00:06:35;11.40;;;2.40;;
61015;SDS011;46902;52.920;6.536;2023-09-19T00:09:04;11.18;;;1.73;;
61015;SDS011;46902;52.920;6.536;2023-09-19T00:11:29;8.98;;;1.85;;
61015;SDS011;46902;52.920;6.536;2023-09-19T00:13:56;11.10;;;2.10;;
61015;SDS011;46902;52.920;6.536;2023-09-19T00:16:24;11.45;;;2.00;;
61015;SDS011;46902;52.920;6.536;2023-09-19T00:18:50;8.95;;;2.13;;
61015;SDS011;46902;52.920;6.536;2023-09-19T00:21:17;10.60;;;2.20;;
61015;SDS011;46902;52.920;6.536;2023-09-19T00:23:45;11.07;;;2.10;;
61015;SDS011;46902;52.920;6.536;2023-09-19T00:26:11;9.93;;;2.10;;
61015;SDS011;46902;52.920;6.536;2023-09-19T00:28:37;8.13;;;1.95;;
61015;SDS011;46902;52.920;6.536;2023-09-19T00:31:04;12.02;;;1.80;;
61015;SDS011;46902;52.920;6.536;2023-09-19T00:33:33;15.20;;;2.67;;
61015;SDS011;46902;52.920;6.536;2023-09-19T00:35:59;13.13;;;1.95;;
61015;SDS011;46902;52.920;6.536;2023-09-19T00:38:27;14.73;;;2.38;;
61015;SDS011;46902;52.920;6.536;2023-09-19T00:40:53;13.15;;;2.17;;
61015;SDS011;46902;52.920;6.536;2023-09-19T00:43:20;14.25;;;2.03;;
61015;SDS011;46902;52.920;6.536;2023-09-19T00:45:47;13.23;;;2.45;;
61015;SDS011;46902;52.920;6.536;2023-09-19T00:48:15;7.60;;;1.67;;
61015;SDS011;46902;52.920;6.536;2023-09-19T00:50:42;11.85;;;2.38;;
61015;SDS011;46902;52.920;6.536;2023-09-19T00:53:09;9.68;;;2.22;;
61015;SDS011;46902;52.920;6.536;2023-09-19T00:55:38;10.48;;;2.15;;
61015;SDS011;46902;52.920;6.536;2023-09-19T00:58:05;12.77;;;2.33;;
61015;SDS011;46902;52.920;6.536;2023-09-19T01:00:31;14.18;;;2.28;;
61015;SDS011;46902;52.920;6.536;2023-09-19T01:02:59;9.60;;;2.38;;
61015;SDS011;46902;52.920;6.536;2023-09-19T01:05:26;13.02;;;2.53;;
61015;SDS011;46902;52.920;6.536;2023-09-19T01:07:52;13.63;;;2.50;;
61015;SDS011;46902;52.920;6.536;2023-09-19T01:10:18;13.43;;;3.08;;
61015;SDS011;46902;52.920;6.536;2023-09-19T01:12:48;9.00;;;2.50;;
61015;SDS011;46902;52.920;6.536;2023-09-19T01:31:59;16.87;;;2.20;;
61015;SDS011;46902;52.920;6.536;2023-09-19T01:34:43;12.02;;;2.03;;
61015;SDS011;46902;52.920;6.536;2023-09-19T01:37:12;11.05;;;2.58;;
61015;SDS011;46902;52.920;6.536;2023-09-19T01:39:39;10.07;;;2.20;;
61015;SDS011;46902;52.920;6.536;2023-09-19T01:42:14;11.80;;;2.70;;
61015;SDS011;46902;52.920;6.536;2023-09-19T01:45:06;9.95;;;2.22;;
61015;SDS011;46902;52.920;6.536;2023-09-19T01:47:48;12.55;;;2.58;;
61015;SDS011;46902;52.920;6.536;2023-09-19T01:50:38;10.70;;;2.28;;
61015;SDS011;46902;52.920;6.536;2023-09-19T01:53:14;12.27;;;2.35;;
61015;SDS011;46902;52.920;6.536;2023-09-19T01:55:53;8.07;;;2.10;;
61015;SDS011;46902;52.920;6.536;2023-09-19T01:58:21;14.93;;;2.78;;
61015;SDS011;46902;52.920;6.536;2023-09-19T02:00:56;9.48;;;2.70;;
61015;SDS011;46902;52.920;6.536;2023-09-19T02:03:24;12.50;;;2.78;;
61015;SDS011;46902;52.920;6.536;2023-09-19T02:05:52;13.45;;;2.67;;
61015;SDS011;46902;52.920;6.536;2023-09-19T02:08:19;12.90;;;2.83;;
61015;SDS011;46902;52.920;6.536;2023-09-19T02:10:46;12.98;;;2.80;;
61015;SDS011;46902;52.920;6.536;2023-09-19T02:13:18;13.05;;;2.95;;
61015;SDS011;46902;52.920;6.536;2023-09-19T02:15:45;10.05;;;2.72;;
61015;SDS011;46902;52.920;6.536;2023-09-19T02:18:11;13.25;;;2.85;;
61015;SDS011;46902;52.920;6.536;2023-09-19T02:20:38;12.52;;;2.45;;
61015;SDS011;46902;52.920;6.536;2023-09-19T02:23:04;10.95;;;2.40;;
61015;SDS011;46902;52.920;6.536;2023-09-19T02:25:30;12.70;;;2.53;;
61015;SDS011;46902;52.920;6.536;2023-09-19T02:27:57;10.18;;;2.33;;
61015;SDS011;46902;52.920;6.536;2023-09-19T02:30:24;15.43;;;2.35;;
61015;SDS011;46902;52.920;6.536;2023-09-19T02:32:51;13.07;;;2.80;;
61015;SDS011;46902;52.920;6.536;2023-09-19T02:35:16;15.98;;;2.55;;
61015;SDS011;46902;52.920;6.536;2023-09-19T02:37:44;10.32;;;2.30;;
61015;SDS011;46902;52.920;6.536;2023-09-19T02:40:13;12.50;;;2.38;;
61015;SDS011;46902;52.920;6.536;2023-09-19T02:42:52;12.43;;;2.40;;
61015;SDS011;46902;52.920;6.536;2023-09-19T02:45:18;11.32;;;2.60;;
61015;SDS011;46902;52.920;6.536;2023-09-19T02:47:45;10.52;;;2.63;;
61015;SDS011;46902;52.920;6.536;2023-09-19T02:50:11;11.00;;;2.17;;
61015;SDS011;46902;52.920;6.536;2023-09-19T02:52:38;10.70;;;2.33;;
61015;SDS011;46902;52.920;6.536;2023-09-19T02:55:09;8.25;;;2.03;;
61015;SDS011;46902;52.920;6.536;2023-09-19T02:57:35;10.82;;;2.58;;
61015;SDS011;46902;52.920;6.536;2023-09-19T03:00:05;10.95;;;2.47;;
61015;SDS011;46902;52.920;6.536;2023-09-19T03:02:33;12.02;;;2.30;;
61015;SDS011;46902;52.920;6.536;2023-09-19T03:04:59;12.27;;;2.78;;
61015;SDS011;46902;52.920;6.536;2023-09-19T03:07:25;11.18;;;2.50;;
61015;SDS011;46902;52.920;6.536;2023-09-19T03:09:51;9.57;;;2.03;;
61015;SDS011;46902;52.920;6.536;2023-09-19T03:12:18;13.75;;;2.70;;
61015;SDS011;46902;52.920;6.536;2023-09-19T03:14:43;13.55;;;2.45;;
61015;SDS011;46902;52.920;6.536;2023-09-19T03:17:09;13.18;;;2.33;;
61015;SDS011;46902;52.920;6.536;2023-09-19T03:19:34;9.98;;;1.80;;
61015;SDS011;46902;52.920;6.536;2023-09-19T03:22:02;13.65;;;2.67;;
61015;SDS011;46902;52.920;6.536;2023-09-19T03:24:28;12.45;;;2.10;;
61015;SDS011;46902;52.920;6.536;2023-09-19T03:26:54;13.23;;;2.33;;
61015;SDS011;46902;52.920;6.536;2023-09-19T03:29:20;11.55;;;2.10;;
61015;SDS011;46902;52.920;6.536;2023-09-19T03:31:45;9.00;;;2.08;;
61015;SDS011;46902;52.920;6.536;2023-09-19T03:34:11;9.23;;;2.40;;
61015;SDS011;46902;52.920;6.536;2023-09-19T03:36:36;10.80;;;2.22;;
61015;SDS011;46902;52.920;6.536;2023-09-19T03:39:02;12.15;;;2.00;;
61015;SDS011;46902;52.920;6.536;2023-09-19T03:41:31;9.02;;;2.30;;
61015;SDS011;46902;52.920;6.536;2023-09-19T03:43:58;11.52;;;2.92;;
61015;SDS011;46902;52.920;6.536;2023-09-19T03:46:23;16.20;;;2.58;;
61015;SDS011;46902;52.920;6.536;2023-09-19T03:48:50;10.40;;;2.10;;
61015;SDS011;46902;52.920;6.536;2023-09-19T03:51:15;14.10;;;2.42;;
61015;SDS011;46902;52.920;6.536;2023-09-19T03:53:41;11.77;;;2.30;;
61015;SDS011;46902;52.920;6.536;2023-09-19T03:56:06;11.65;;;2.15;;
61015;SDS011;46902;52.920;6.536;2023-09-19T03:58:33;9.50;;;2.25;;
61015;SDS011;46902;52.920;6.536;2023-09-19T04:01:03;9.93;;;1.92;;
61015;SDS011;46902;52.920;6.536;2023-09-19T04:03:28;12.55;;;2.40;;
61015;SDS011;46902;52.920;6.536;2023-09-19T04:06:00;9.20;;;1.98;;
61015;SDS011;46902;52.920;6.536;2023-09-19T04:08:26;10.65;;;2.05;;
61015;SDS011;46902;52.920;6.536;2023-09-19T04:10:52;8.02;;;1.90;;
61015;SDS011;46902;52.920;6.536;2023-09-19T04:13:18;7.55;;;2.30;;
61015;SDS011;46902;52.920;6.536;2023-09-19T04:15:43;13.23;;;2.28;;
61015;SDS011;46902;52.920;6.536;2023-09-19T04:18:11;7.97;;;2.10;;
61015;SDS011;46902;52.920;6.536;2023-09-19T04:20:37;8.65;;;2.08;;
61015;SDS011;46902;52.920;6.536;2023-09-19T04:23:02;14.50;;;2.50;;
61015;SDS011;46902;52.920;6.536;2023-09-19T04:25:30;11.77;;;2.13;;
61015;SDS011;46902;52.920;6.536;2023-09-19T04:27:55;9.63;;;2.15;;
61015;SDS011;46902;52.920;6.536;2023-09-19T04:30:21;10.00;;;1.73;;
61015;SDS011;46902;52.920;6.536;2023-09-19T04:32:47;10.05;;;2.03;;
61015;SDS011;46902;52.920;6.536;2023-09-19T04:35:15;6.38;;;1.83;;
61015;SDS011;46902;52.920;6.536;2023-09-19T04:37:41;6.78;;;2.33;;
61015;SDS011;46902;52.920;6.536;2023-09-19T04:40:07;12.90;;;2.80;;
61015;SDS011;46902;52.920;6.536;2023-09-19T04:42:38;7.05;;;2.47;;
61015;SDS011;46902;52.920;6.536;2023-09-19T04:45:04;6.78;;;1.77;;
61015;SDS011;46902;52.920;6.536;2023-09-19T04:47:30;14.15;;;2.22;;
61015;SDS011;46902;52.920;6.536;2023-09-19T04:49:55;12.75;;;3.03;;
61015;SDS011;46902;52.920;6.536;2023-09-19T04:52:23;12.13;;;2.65;;
61015;SDS011;46902;52.920;6.536;2023-09-19T04:54:49;13.05;;;2.58;;
61015;SDS011;46902;52.920;6.536;2023-09-19T04:57:15;10.85;;;3.10;;
61015;SDS011;46902;52.920;6.536;2023-09-19T04:59:41;14.40;;;2.65;;
61015;SDS011;46902;52.920;6.536;2023-09-19T05:02:06;12.85;;;2.80;;
61015;SDS011;46902;52.920;6.536;2023-09-19T05:04:33;10.50;;;2.60;;
61015;SDS011;46902;52.920;6.536;2023-09-19T05:06:59;17.08;;;3.13;;
61015;SDS011;46902;52.920;6.536;2023-09-19T05:09:26;11.57;;;2.83;;
61015;SDS011;46902;52.920;6.536;2023-09-19T05:11:51;13.60;;;3.33;;
61015;SDS011;46902;52.920;6.536;2023-09-19T05:14:18;11.45;;;2.92;;
61015;SDS011;46902;52.920;6.536;2023-09-19T05:16:44;15.07;;;2.75;;
61015;SDS011;46902;52.920;6.536;2023-09-19T05:19:10;14.00;;;2.72;;
61015;SDS011;46902;52.920;6.536;2023-09-19T05:21:37;14.77;;;3.50;;
61015;SDS011;46902;52.920;6.536;2023-09-19T05:24:04;12.18;;;3.30;;
61015;SDS011;46902;52.920;6.536;2023-09-19T05:26:31;11.70;;;2.67;;
61015;SDS011;46902;52.920;6.536;2023-09-19T05:28:57;14.82;;;3.10;;
61015;SDS011;46902;52.920;6.536;2023-09-19T05:31:23;10.15;;;2.90;;
61015;SDS011;46902;52.920;6.536;2023-09-19T05:33:50;13.98;;;3.67;;
61015;SDS011;46902;52.920;6.536;2023-09-19T05:36:17;17.65;;;3.00;;
61015;SDS011;46902;52.920;6.536;2023-09-19T05:38:42;14.80;;;3.15;;
61015;SDS011;46902;52.920;6.536;2023-09-19T05:41:09;17.23;;;3.38;;
61015;SDS011;46902;52.920;6.536;2023-09-19T05:43:38;11.20;;;2.85;;
61015;SDS011;46902;52.920;6.536;2023-09-19T05:46:06;17.02;;;2.78;;
61015;SDS011;46902;52.920;6.536;2023-09-19T05:48:33;14.63;;;2.85;;
61015;SDS011;46902;52.920;6.536;2023-09-19T05:50:59;16.63;;;3.35;;
61015;SDS011;46902;52.920;6.536;2023-09-19T05:53:26;14.32;;;2.80;;
61015;SDS011;46902;52.920;6.536;2023-09-19T05:55:52;21.33;;;3.63;;
61015;SDS011;46902;52.920;6.536;2023-09-19T05:58:18;16.38;;;3.25;;
61015;SDS011;46902;52.920;6.536;2023-09-19T06:00:45;17.10;;;2.75;;
61015;SDS011;46902;52.920;6.536;2023-09-19T06:03:13;12.52;;;2.80;;
61015;SDS011;46902;52.920;6.536;2023-09-19T06:05:39;16.27;;;2.97;;
61015;SDS011;46902;52.920;6.536;2023-09-19T06:08:05;13.07;;;3.20;;
61015;SDS011;46902;52.920;6.536;2023-09-19T06:10:32;15.93;;;3.10;;
61015;SDS011;46902;52.920;6.536;2023-09-19T06:12:59;18.92;;;3.30;;
61015;SDS011;46902;52.920;6.536;2023-09-19T06:15:29;19.55;;;3.65;;
61015;SDS011;46902;52.920;6.536;2023-09-19T06:17:57;13.73;;;3.10;;
61015;SDS011;46902;52.920;6.536;2023-09-19T06:20:25;13.93;;;2.95;;
61015;SDS011;46902;52.920;6.536;2023-09-19T06:22:51;13.35;;;3.17;;
61015;SDS011;46902;52.920;6.536;2023-09-19T06:25:18;16.25;;;3.13;;
61015;SDS011;46902;52.920;6.536;2023-09-19T06:27:50;15.48;;;3.22;;
61015;SDS011;46902;52.920;6.536;2023-09-19T06:30:20;17.38;;;2.88;;
61015;SDS011;46902;52.920;6.536;2023-09-19T06:32:46;12.02;;;2.60;;
61015;SDS011;46902;52.920;6.536;2023-09-19T06:35:13;14.00;;;2.47;;
61015;SDS011;46902;52.920;6.536;2023-09-19T06:37:41;16.08;;;3.08;;
61015;SDS011;46902;52.920;6.536;2023-09-19T06:40:09;12.98;;;2.83;;
61015;SDS011;46902;52.920;6.536;2023-09-19T06:43:12;13.80;;;3.25;;
61015;SDS011;46902;52.920;6.536;2023-09-19T06:45:31;12.07;;;2.78;;
61015;SDS011;46902;52.920;6.536;2023-09-19T06:47:57;16.13;;;3.20;;
61015;SDS011;46902;52.920;6.536;2023-09-19T06:50:25;15.00;;;3.08;;
61015;SDS011;46902;52.920;6.536;2023-09-19T06:52:52;18.30;;;3.30;;
61015;SDS011;46902;52.920;6.536;2023-09-19T06:55:19;18.00;;;3.33;;
61015;SDS011;46902;52.920;6.536;2023-09-19T06:57:46;15.55;;;3.17;;
61015;SDS011;46902;52.920;6.536;2023-09-19T07:00:13;13.82;;;2.42;;
61015;SDS011;46902;52.920;6.536;2023-09-19T07:05:33;15.20;;;2.67;;
61015;SDS011;46902;52.920;6.536;2023-09-19T07:08:02;17.27;;;3.45;;
61015;SDS011;46902;52.920;6.536;2023-09-19T07:10:28;13.80;;;2.75;;
61015;SDS011;46902;52.920;6.536;2023-09-19T07:13:01;13.45;;;2.80;;
61015;SDS011;46902;52.920;6.536;2023-09-19T07:15:35;12.00;;;2.85;;
61015;SDS011;46902;52.920;6.536;2023-09-19T07:18:04;12.10;;;2.85;;
61015;SDS011;46902;52.920;6.536;2023-09-19T07:20:31;11.80;;;2.75;;
61015;SDS011;46902;52.920;6.536;2023-09-19T07:22:58;12.00;;;2.85;;
61015;SDS011;46902;52.920;6.536;2023-09-19T07:25:26;13.15;;;2.63;;
61015;SDS011;46902;52.920;6.536;2023-09-19T07:27:54;18.58;;;2.95;;
61015;SDS011;46902;52.920;6.536;2023-09-19T07:30:20;17.42;;;3.20;;
61015;SDS011;46902;52.920;6.536;2023-09-19T07:32:46;14.40;;;2.80;;
61015;SDS011;46902;52.920;6.536;2023-09-19T07:35:12;16.42;;;3.53;;
61015;SDS011;46902;52.920;6.536;2023-09-19T07:37:37;14.65;;;2.65;;
61015;SDS011;46902;52.920;6.536;2023-09-19T07:40:03;12.45;;;2.58;;
61015;SDS011;46902;52.920;6.536;2023-09-19T07:42:33;12.30;;;2.80;;
61015;SDS011;46902;52.920;6.536;2023-09-19T07:45:00;14.82;;;3.05;;
61015;SDS011;46902;52.920;6.536;2023-09-19T07:47:26;15.10;;;2.65;;
61015;SDS011;46902;52.920;6.536;2023-09-19T07:49:52;13.05;;;3.25;;
61015;SDS011;46902;52.920;6.536;2023-09-19T07:52:18;14.13;;;3.83;;
61015;SDS011;46902;52.920;6.536;2023-09-19T07:54:44;10.40;;;2.90;;
61015;SDS011;46902;52.920;6.536;2023-09-19T07:57:10;10.80;;;2.67;;
61015;SDS011;46902;52.920;6.536;2023-09-19T07:59:37;12.23;;;2.80;;
61015;SDS011;46902;52.920;6.536;2023-09-19T08:02:03;13.45;;;2.80;;
61015;SDS011;46902;52.920;6.536;2023-09-19T08:04:29;13.18;;;2.67;;
61015;SDS011;46902;52.920;6.536;2023-09-19T08:06:58;12.05;;;3.10;;
61015;SDS011;46902;52.920;6.536;2023-09-19T08:09:24;10.32;;;2.83;;
61015;SDS011;46902;52.920;6.536;2023-09-19T08:11:49;17.58;;;3.75;;
61015;SDS011;46902;52.920;6.536;2023-09-19T08:14:15;11.80;;;2.80;;
61015;SDS011;46902;52.920;6.536;2023-09-19T08:16:41;11.68;;;2.60;;
61015;SDS011;46902;52.920;6.536;2023-09-19T08:19:08;14.13;;;3.22;;
61015;SDS011;46902;52.920;6.536;2023-09-19T08:21:35;16.40;;;3.65;;
61015;SDS011;46902;52.920;6.536;2023-09-19T08:24:01;16.90;;;3.70;;
61015;SDS011;46902;52.920;6.536;2023-09-19T08:26:30;13.70;;;3.45;;
61015;SDS011;46902;52.920;6.536;2023-09-19T08:28:56;12.70;;;3.47;;
61015;SDS011;46902;52.920;6.536;2023-09-19T08:31:22;12.90;;;3.10;;
61015;SDS011;46902;52.920;6.536;2023-09-19T08:33:49;15.82;;;3.45;;
61015;SDS011;46902;52.920;6.536;2023-09-19T08:36:16;15.15;;;3.20;;
61015;SDS011;46902;52.920;6.536;2023-09-19T08:38:42;12.95;;;2.90;;
61015;SDS011;46902;52.920;6.536;2023-09-19T08:41:07;15.48;;;3.35;;
61015;SDS011;46902;52.920;6.536;2023-09-19T08:43:34;11.02;;;3.30;;
61015;SDS011;46902;52.920;6.536;2023-09-19T08:46:10;15.80;;;3.28;;
61015;SDS011;46902;52.920;6.536;2023-09-19T08:48:46;12.68;;;3.47;;
61015;SDS011;46902;52.920;6.536;2023-09-19T08:51:40;16.58;;;3.50;;
61015;SDS011;46902;52.920;6.536;2023-09-19T08:54:24;18.38;;;3.20;;
61015;SDS011;46902;52.920;6.536;2023-09-19T08:56:54;16.25;;;3.55;;
61015;SDS011;46902;52.920;6.536;2023-09-19T08:59:22;16.02;;;3.92;;
61015;SDS011;46902;52.920;6.536;2023-09-19T09:01:52;16.83;;;3.83;;
61015;SDS011;46902;52.920;6.536;2023-09-19T09:04:19;20.83;;;5.35;;
61015;SDS011;46902;52.920;6.536;2023-09-19T09:06:45;17.60;;;3.58;;
61015;SDS011;46902;52.920;6.536;2023-09-19T09:09:14;17.13;;;3.15;;
61015;SDS011;46902;52.920;6.536;2023-09-19T09:11:40;13.75;;;3.35;;
61015;SDS011;46902;52.920;6.536;2023-09-19T09:14:06;18.60;;;4.70;;
61015;SDS011;46902;52.920;6.536;2023-09-19T09:16:35;21.30;;;3.70;;
61015;SDS011;46902;52.920;6.536;2023-09-19T09:19:00;13.48;;;3.42;;
61015;SDS011;46902;52.920;6.536;2023-09-19T09:21:26;13.90;;;3.83;;
61015;SDS011;46902;52.920;6.536;2023-09-19T09:23:53;11.73;;;2.97;;
61015;SDS011;46902;52.920;6.536;2023-09-19T09:26:40;16.17;;;3.85;;
61015;SDS011;46902;52.920;6.536;2023-09-19T09:29:07;12.40;;;2.70;;
61015;SDS011;46902;52.920;6.536;2023-09-19T09:31:33;17.88;;;3.60;;
61015;SDS011;46902;52.920;6.536;2023-09-19T09:33:59;15.65;;;3.50;;
61015;SDS011;46902;52.920;6.536;2023-09-19T09:39:04;13.60;;;3.10;;
61015;SDS011;46902;52.920;6.536;2023-09-19T09:41:50;14.88;;;3.30;;
61015;SDS011;46902;52.920;6.536;2023-09-19T09:44:16;17.80;;;3.70;;
61015;SDS011;46902;52.920;6.536;2023-09-19T09:46:46;11.77;;;2.55;;
61015;SDS011;46902;52.920;6.536;2023-09-19T09:49:24;17.27;;;3.95;;
61015;SDS011;46902;52.920;6.536;2023-09-19T09:52:07;19.77;;;4.05;;
61015;SDS011;46902;52.920;6.536;2023-09-19T09:54:41;10.65;;;3.35;;
61015;SDS011;46902;52.920;6.536;2023-09-19T09:57:30;18.35;;;4.15;;
61015;SDS011;46902;52.920;6.536;2023-09-19T09:59:56;13.38;;;2.85;;
61015;SDS011;46902;52.920;6.536;2023-09-19T10:02:28;12.43;;;3.20;;
61015;SDS011;46902;52.920;6.536;2023-09-19T10:04:58;14.50;;;3.38;;
61015;SDS011;46902;52.920;6.536;2023-09-19T10:07:34;12.65;;;3.05;;
61015;SDS011;46902;52.920;6.536;2023-09-19T10:10:05;15.38;;;3.42;;
61015;SDS011;46902;52.920;6.536;2023-09-19T10:12:45;15.43;;;4.05;;
61015;SDS011;46902;52.920;6.536;2023-09-19T10:15:16;16.77;;;3.20;;
61015;SDS011;46902;52.920;6.536;2023-09-19T10:17:45;14.52;;;3.58;;
61015;SDS011;46902;52.920;6.536;2023-09-19T10:20:13;15.95;;;3.05;;
61015;SDS011;46902;52.920;6.536;2023-09-19T10:22:59;13.75;;;3.17;;
61015;SDS011;46902;52.920;6.536;2023-09-19T10:25:29;12.77;;;4.18;;
61015;SDS011;46902;52.920;6.536;2023-09-19T10:27:56;10.15;;;2.90;;
61015;SDS011;46902;52.920;6.536;2023-09-19T10:30:28;12.48;;;3.45;;
61015;SDS011;46902;52.920;6.536;2023-09-19T10:33:02;14.07;;;3.75;;
61015;SDS011;46902;52.920;6.536;2023-09-19T10:35:30;12.65;;;3.28;;
61015;SDS011;46902;52.920;6.536;2023-09-19T10:37:59;14.32;;;3.30;;
61015;SDS011;46902;52.920;6.536;2023-09-19T10:40:26;14.70;;;3.38;;
61015;SDS011;46902;52.920;6.536;2023-09-19T10:43:03;15.18;;;3.08;;
61015;SDS011;46902;52.920;6.536;2023-09-19T10:45:30;13.90;;;2.83;;
61015;SDS011;46902;52.920;6.536;2023-09-19T10:47:57;12.20;;;3.35;;
61015;SDS011;46902;52.920;6.536;2023-09-19T10:50:23;18.33;;;4.20;;
61015;SDS011;46902;52.920;6.536;2023-09-19T10:52:50;11.18;;;2.88;;
61015;SDS011;46902;52.920;6.536;2023-09-19T10:55:24;12.63;;;3.17;;
61015;SDS011;46902;52.920;6.536;2023-09-19T10:57:53;16.83;;;3.00;;
61015;SDS011;46902;52.920;6.536;2023-09-19T11:00:19;15.82;;;3.05;;
61015;SDS011;46902;52.920;6.536;2023-09-19T11:05:34;9.65;;;3.13;;
61015;SDS011;46902;52.920;6.536;2023-09-19T11:08:08;13.65;;;2.90;;
61015;SDS011;46902;52.920;6.536;2023-09-19T11:10:49;12.10;;;3.15;;
61015;SDS011;46902;52.920;6.536;2023-09-19T11:13:25;14.45;;;3.15;;
61015;SDS011;46902;52.920;6.536;2023-09-19T11:27:08;13.55;;;2.92;;
61015;SDS011;46902;52.920;6.536;2023-09-19T11:29:39;13.02;;;2.78;;
61015;SDS011;46902;52.920;6.536;2023-09-19T11:32:05;14.88;;;2.65;;
61015;SDS011;46902;52.920;6.536;2023-09-19T11:34:41;12.98;;;2.55;;
61015;SDS011;46902;52.920;6.536;2023-09-19T11:39:37;17.67;;;3.08;;
61015;SDS011;46902;52.920;6.536;2023-09-19T11:48:15;11.45;;;2.78;;
61015;SDS011;46902;52.920;6.536;2023-09-19T11:50:43;12.43;;;3.00;;
61015;SDS011;46902;52.920;6.536;2023-09-19T11:53:11;12.75;;;2.42;;
61015;SDS011;46902;52.920;6.536;2023-09-19T11:55:40;10.75;;;2.55;;
61015;SDS011;46902;52.920;6.536;2023-09-19T11:58:09;13.13;;;3.10;;
61015;SDS011;46902;52.920;6.536;2023-09-19T12:00:37;16.70;;;3.25;;
61015;SDS011;46902;52.920;6.536;2023-09-19T12:03:08;16.52;;;3.42;;
61015;SDS011;46902;52.920;6.536;2023-09-19T12:05:36;10.82;;;2.60;;
61015;SDS011;46902;52.920;6.536;2023-09-19T12:08:02;10.75;;;2.60;;
61015;SDS011;46902;52.920;6.536;2023-09-19T12:10:32;11.80;;;3.13;;
61015;SDS011;46902;52.920;6.536;2023-09-19T12:12:58;9.60;;;2.50;;
61015;SDS011;46902;52.920;6.536;2023-09-19T12:15:28;15.45;;;2.70;;
61015;SDS011;46902;52.920;6.536;2023-09-19T12:17:59;13.43;;;2.88;;
61015;SDS011;46902;52.920;6.536;2023-09-19T12:20:25;12.13;;;2.58;;
61015;SDS011;46902;52.920;6.536;2023-09-19T12:23:15;11.10;;;2.50;;
61015;SDS011;46902;52.920;6.536;2023-09-19T12:25:44;12.27;;;2.73;;
61015;SDS011;46902;52.920;6.536;2023-09-19T12:28:17;11.88;;;2.20;;
61015;SDS011;46902;52.920;6.536;2023-09-19T12:30:42;9.13;;;2.85;;
61015;SDS011;46902;52.920;6.536;2023-09-19T12:33:19;10.35;;;2.63;;
61015;SDS011;46902;52.920;6.536;2023-09-19T12:35:46;9.45;;;2.50;;
61015;SDS011;46902;52.920;6.536;2023-09-19T12:38:22;12.45;;;2.17;;
61015;SDS011;46902;52.920;6.536;2023-09-19T12:40:54;10.63;;;2.10;;
61015;SDS011;46902;52.920;6.536;2023-09-19T12:43:30;9.43;;;1.92;;
61015;SDS011;46902;52.920;6.536;2023-09-19T12:46:01;10.10;;;2.20;;
61015;SDS011;46902;52.920;6.536;2023-09-19T12:48:27;9.52;;;2.05;;
61015;SDS011;46902;52.920;6.536;2023-09-19T12:53:26;8.30;;;2.55;;
61015;SDS011;46902;52.920;6.536;2023-09-19T12:56:00;16.08;;;2.42;;
61015;SDS011;46902;52.920;6.536;2023-09-19T12:58:25;8.05;;;1.90;;
61015;SDS011;46902;52.920;6.536;2023-09-19T13:00:51;13.77;;;2.00;;
61015;SDS011;46902;52.920;6.536;2023-09-19T13:06:02;11.35;;;2.03;;
61015;SDS011;46902;52.920;6.536;2023-09-19T13:11:12;11.40;;;2.20;;
61015;SDS011;46902;52.920;6.536;2023-09-19T13:16:53;6.63;;;1.83;;
61015;SDS011;46902;52.920;6.536;2023-09-19T13:19:41;9.68;;;2.10;;
61015;SDS011;46902;52.920;6.536;2023-09-19T13:25:17;7.55;;;2.00;;
61015;SDS011;46902;52.920;6.536;2023-09-19T13:27:44;7.28;;;1.52;;
61015;SDS011;46902;52.920;6.536;2023-09-19T13:30:10;8.27;;;1.67;;
61015;SDS011;46902;52.920;6.536;2023-09-19T13:32:39;7.50;;;1.88;;
61015;SDS011;46902;52.920;6.536;2023-09-19T13:35:06;9.88;;;2.05;;
61015;SDS011;46902;52.920;6.536;2023-09-19T13:37:34;8.95;;;1.80;;
61015;SDS011;46902;52.920;6.536;2023-09-19T13:40:06;7.73;;;1.67;;
61015;SDS011;46902;52.920;6.536;2023-09-19T13:42:33;9.48;;;1.95;;
61015;SDS011;46902;52.920;6.536;2023-09-19T13:44:59;9.10;;;1.50;;
61015;SDS011;46902;52.920;6.536;2023-09-19T13:47:24;8.38;;;1.48;;
61015;SDS011;46902;52.920;6.536;2023-09-19T13:49:51;6.47;;;1.45;;
61015;SDS011;46902;52.920;6.536;2023-09-19T13:52:18;8.00;;;1.77;;
61015;SDS011;46902;52.920;6.536;2023-09-19T13:54:45;6.35;;;1.92;;
61015;SDS011;46902;52.920;6.536;2023-09-19T13:57:10;7.32;;;1.88;;
61015;SDS011;46902;52.920;6.536;2023-09-19T13:59:36;6.65;;;1.50;;
61015;SDS011;46902;52.920;6.536;2023-09-19T14:02:01;6.88;;;1.73;;
61015;SDS011;46902;52.920;6.536;2023-09-19T14:04:30;8.57;;;1.92;;
61015;SDS011;46902;52.920;6.536;2023-09-19T14:06:56;7.40;;;1.75;;
61015;SDS011;46902;52.920;6.536;2023-09-19T14:09:23;7.10;;;1.40;;
61015;SDS011;46902;52.920;6.536;2023-09-19T14:11:49;10.05;;;1.65;;
61015;SDS011;46902;52.920;6.536;2023-09-19T14:14:17;9.45;;;1.92;;
61015;SDS011;46902;52.920;6.536;2023-09-19T14:16:46;7.13;;;1.80;;
61015;SDS011;46902;52.920;6.536;2023-09-19T14:19:12;7.45;;;1.35;;
61015;SDS011;46902;52.920;6.536;2023-09-19T14:21:40;7.72;;;1.60;;
61015;SDS011;46902;52.920;6.536;2023-09-19T14:24:05;6.80;;;1.73;;
61015;SDS011;46902;52.920;6.536;2023-09-19T14:26:34;7.70;;;1.38;;
61015;SDS011;46902;52.920;6.536;2023-09-19T14:29:00;5.25;;;1.38;;
61015;SDS011;46902;52.920;6.536;2023-09-19T14:31:26;8.65;;;1.52;;
61015;SDS011;46902;52.920;6.536;2023-09-19T14:33:56;10.07;;;1.48;;
61015;SDS011;46902;52.920;6.536;2023-09-19T14:36:24;8.73;;;1.30;;
61015;SDS011;46902;52.920;6.536;2023-09-19T14:38:52;5.68;;;1.45;;
61015;SDS011;46902;52.920;6.536;2023-09-19T14:41:24;7.72;;;1.42;;
61015;SDS011;46902;52.920;6.536;2023-09-19T14:43:50;5.35;;;1.25;;
61015;SDS011;46902;52.920;6.536;2023-09-19T14:46:16;6.53;;;1.13;;
61015;SDS011;46902;52.920;6.536;2023-09-19T14:48:44;5.15;;;1.10;;
61015;SDS011;46902;52.920;6.536;2023-09-19T14:51:12;7.50;;;1.48;;
61015;SDS011;46902;52.920;6.536;2023-09-19T14:53:38;9.43;;;1.48;;
61015;SDS011;46902;52.920;6.536;2023-09-19T14:56:07;6.68;;;1.23;;
61015;SDS011;46902;52.920;6.536;2023-09-19T14:58:34;5.72;;;1.10;;
61015;SDS011;46902;52.920;6.536;2023-09-19T15:01:07;6.90;;;1.50;;
61015;SDS011;46902;52.920;6.536;2023-09-19T15:03:35;7.53;;;1.15;;
61015;SDS011;46902;52.920;6.536;2023-09-19T15:06:02;7.28;;;1.30;;
61015;SDS011;46902;52.920;6.536;2023-09-19T15:08:30;4.20;;;1.10;;
61015;SDS011;46902;52.920;6.536;2023-09-19T15:10:56;7.40;;;1.13;;
61015;SDS011;46902;52.920;6.536;2023-09-19T15:13:23;6.32;;;1.55;;
61015;SDS011;46902;52.920;6.536;2023-09-19T15:15:57;6.50;;;1.60;;
61015;SDS011;46902;52.920;6.536;2023-09-19T15:18:27;7.82;;;1.30;;
61015;SDS011;46902;52.920;6.536;2023-09-19T15:20:55;7.07;;;1.73;;
61015;SDS011;46902;52.920;6.536;2023-09-19T15:23:20;7.30;;;1.42;;
61015;SDS011;46902;52.920;6.536;2023-09-19T15:25:49;7.82;;;1.35;;
61015;SDS011;46902;52.920;6.536;2023-09-19T15:28:16;6.97;;;1.73;;
61015;SDS011;46902;52.920;6.536;2023-09-19T15:30:41;7.28;;;1.50;;
61015;SDS011;46902;52.920;6.536;2023-09-19T15:33:07;5.65;;;1.10;;
61015;SDS011;46902;52.920;6.536;2023-09-19T15:35:32;9.88;;;1.58;;
61015;SDS011;46902;52.920;6.536;2023-09-19T15:37:58;6.72;;;1.10;;
61015;SDS011;46902;52.920;6.536;2023-09-19T15:40:25;8.02;;;1.67;;
61015;SDS011;46902;52.920;6.536;2023-09-19T15:42:52;7.50;;;1.77;;
61015;SDS011;46902;52.920;6.536;2023-09-19T15:45:19;12.10;;;1.58;;